Time;durP1;ratioP1;P1;durP2;ratioP2;P2;SDS_P1;SDS_P2;PMS_P1;PMS_P2;Temp;Humidity;BMP_temperature;BMP_pressure;BME280_temperature;BME280_humidity;BME280_pressure;Samples;Min_cycle;Max_cycle;Signal;HPM_P1;HPM_P2
2023/07/23 00:00:38;;;;;;;;;1.00;1.00;;;;;;;;5094402;27;45347;-71
2023/07/23 00:03:03;;;;;;;;;0.25;0.25;;;;;;;;5094320;27;45397;-71
2023/07/23 00:05:28;;;;;;;;;2.00;1.00;;;;;;;;5094126;27;45627;-72
2023/07/23 00:07:54;;;;;;;;;0.75;0.00;;;;;;;;5093998;27;47029;-72
2023/07/23 00:10:20;;;;;;;;;0.00;0.00;;;;;;;;5094202;27;45437;-72
2023/07/23 00:12:45;;;;;;;;;2.00;2.00;;;;;;;;5094046;27;45369;-71
2023/07/23 00:15:12;;;;;;;;;1.00;1.00;;;;;;;;5094527;27;45444;-72
2023/07/23 00:17:39;;;;;;;;;1.00;1.00;;;;;;;;5093791;27;46403;-71
2023/07/23 00:20:04;;;;;;;;;1.00;1.00;;;;;;;;5093889;27;45518;-71
2023/07/23 00:22:29;;;;;;;;;1.25;0.00;;;;;;;;5092690;27;45474;-71
2023/07/23 00:24:56;;;;;;;;;2.25;1.00;;;;;;;;5094428;27;45485;-72
2023/07/23 00:27:22;;;;;;;;;0.75;0.75;;;;;;;;5093856;27;45947;-72
2023/07/23 00:29:47;;;;;;;;;1.25;1.25;;;;;;;;5092377;27;45350;-71
2023/07/23 00:32:12;;;;;;;;;1.00;1.00;;;;;;;;5094002;27;45311;-72
2023/07/23 00:34:38;;;;;;;;;0.00;0.00;;;;;;;;5092831;27;45588;-72
2023/07/23 00:37:03;;;;;;;;;1.25;1.25;;;;;;;;5093647;27;47081;-72
2023/07/23 00:39:28;;;;;;;;;1.75;1.00;;;;;;;;5093994;27;45514;-72
2023/07/23 00:41:54;;;;;;;;;1.25;1.25;;;;;;;;5092653;27;45460;-70
2023/07/23 00:44:19;;;;;;;;;1.75;1.00;;;;;;;;5093931;27;45999;-70
2023/07/23 00:46:45;;;;;;;;;0.75;0.75;;;;;;;;5092350;27;47728;-71
2023/07/23 00:49:11;;;;;;;;;1.00;1.00;;;;;;;;5095781;27;45474;-71
2023/07/23 00:51:36;;;;;;;;;0.50;0.50;;;;;;;;5094544;27;45450;-72
2023/07/23 00:54:03;;;;;;;;;0.00;0.00;;;;;;;;5096009;27;45696;-71
2023/07/23 00:56:28;;;;;;;;;1.00;0.75;;;;;;;;5095381;27;47336;-71
2023/07/23 00:58:55;;;;;;;;;1.25;1.25;;;;;;;;5097010;27;45461;-72
2023/07/23 01:01:20;;;;;;;;;2.00;1.00;;;;;;;;5097203;27;45424;-70
2023/07/23 01:03:45;;;;;;;;;1.25;1.25;;;;;;;;5097118;27;45417;-72
2023/07/23 01:06:11;;;;;;;;;1.00;1.00;;;;;;;;5096552;27;45496;-72
2023/07/23 01:08:38;;;;;;;;;0.00;0.00;;;;;;;;5096576;27;45803;-70
2023/07/23 01:11:03;;;;;;;;;2.00;1.75;;;;;;;;5096880;27;45445;-71
2023/07/23 01:13:28;;;;;;;;;1.00;1.00;;;;;;;;5095448;27;45426;-71
2023/07/23 01:15:54;;;;;;;;;2.00;0.25;;;;;;;;5095384;27;47841;-71
2023/07/23 01:18:19;;;;;;;;;2.50;2.50;;;;;;;;5096890;27;45485;-71
2023/07/23 01:20:45;;;;;;;;;1.00;1.00;;;;;;;;5096757;27;45397;-71
2023/07/23 01:23:10;;;;;;;;;1.00;1.00;;;;;;;;5095172;27;45539;-71
2023/07/23 01:25:35;;;;;;;;;2.00;2.00;;;;;;;;5096862;27;46199;-72
2023/07/23 01:28:00;;;;;;;;;1.00;1.00;;;;;;;;5096564;27;45381;-71
2023/07/23 01:30:26;;;;;;;;;2.00;1.00;;;;;;;;5096870;27;45622;-70
2023/07/23 01:32:52;;;;;;;;;1.50;0.50;;;;;;;;5096438;27;45514;-70
2023/07/23 01:35:18;;;;;;;;;2.50;1.00;;;;;;;;5095811;27;46586;-71
2023/07/23 01:37:44;;;;;;;;;0.50;0.50;;;;;;;;5096688;27;45426;-70
2023/07/23 01:40:10;;;;;;;;;1.75;1.75;;;;;;;;5096539;27;45516;-70
2023/07/23 01:42:35;;;;;;;;;2.25;2.00;;;;;;;;5096252;27;45475;-71
2023/07/23 01:45:02;;;;;;;;;1.00;1.00;;;;;;;;5096250;27;46299;-71
2023/07/23 01:47:27;;;;;;;;;1.00;1.00;;;;;;;;5095844;27;45594;-71
2023/07/23 01:49:52;;;;;;;;;1.00;1.00;;;;;;;;5096493;27;45386;-71
2023/07/23 01:52:18;;;;;;;;;2.00;2.00;;;;;;;;5096088;27;45395;-71
2023/07/23 01:54:43;;;;;;;;;2.50;0.00;;;;;;;;5096030;27;45482;-71
2023/07/23 01:57:08;;;;;;;;;0.75;0.75;;;;;;;;5095071;27;45558;-71
2023/07/23 01:59:34;;;;;;;;;1.25;1.25;;;;;;;;5096149;27;45483;-72
2023/07/23 02:02:00;;;;;;;;;1.50;1.50;;;;;;;;5095754;27;45460;-71
2023/07/23 02:04:25;;;;;;;;;3.00;1.75;;;;;;;;5095799;27;46476;-71
2023/07/23 02:06:50;;;;;;;;;2.00;2.00;;;;;;;;5096686;27;45610;-71
2023/07/23 02:09:15;;;;;;;;;0.50;0.50;;;;;;;;5097230;27;45372;-70
2023/07/23 02:11:41;;;;;;;;;1.25;1.25;;;;;;;;5097420;27;45457;-70
2023/07/23 02:14:06;;;;;;;;;1.25;1.25;;;;;;;;5096841;27;45347;-69
2023/07/23 02:16:31;;;;;;;;;2.00;1.00;;;;;;;;5096737;27;45246;-70
2023/07/23 02:18:57;;;;;;;;;1.25;1.25;;;;;;;;5097135;27;45332;-69
2023/07/23 02:21:22;;;;;;;;;2.75;1.75;;;;;;;;5095266;27;45468;-69
2023/07/23 02:23:47;;;;;;;;;1.50;1.50;;;;;;;;5096768;27;47175;-69
2023/07/23 02:26:13;;;;;;;;;0.50;0.50;;;;;;;;5096837;27;45387;-69
2023/07/23 02:28:42;;;;;;;;;3.00;3.00;;;;;;;;5096744;27;45389;-69
2023/07/23 02:31:07;;;;;;;;;1.25;1.25;;;;;;;;5096923;27;45387;-69
2023/07/23 02:33:33;;;;;;;;;1.50;0.75;;;;;;;;5096285;27;47198;-70
2023/07/23 02:35:58;;;;;;;;;2.00;1.00;;;;;;;;5096694;27;45321;-69
2023/07/23 02:38:23;;;;;;;;;1.25;1.25;;;;;;;;5096934;27;45313;-69
2023/07/23 02:40:55;;;;;;;;;1.75;1.75;;;;;;;;5096706;27;45600;-69
2023/07/23 02:43:20;;;;;;;;;1.00;1.00;;;;;;;;5096248;27;47394;-69
2023/07/23 02:45:45;;;;;;;;;0.25;0.25;;;;;;;;5096314;27;45457;-69
2023/07/23 02:48:10;;;;;;;;;2.00;1.00;;;;;;;;5096549;27;45330;-69
2023/07/23 02:50:37;;;;;;;;;1.50;1.50;;;;;;;;5096577;27;45418;-70
2023/07/23 02:53:02;;;;;;;;;0.75;0.75;;;;;;;;5096527;27;45363;-70
2023/07/23 02:55:28;;;;;;;;;0.50;0.50;;;;;;;;5096339;27;45363;-70
2023/07/23 02:57:53;;;;;;;;;2.00;0.75;;;;;;;;5096679;27;45296;-70
2023/07/23 03:00:18;;;;;;;;;0.75;0.75;;;;;;;;5096204;27;45446;-70
2023/07/23 03:02:44;;;;;;;;;1.00;1.00;;;;;;;;5096395;27;45950;-71
2023/07/23 03:05:10;;;;;;;;;1.25;1.25;;;;;;;;5096013;27;45464;-70
2023/07/23 03:07:35;;;;;;;;;2.00;0.75;;;;;;;;5096154;27;45364;-70
2023/07/23 03:10:01;;;;;;;;;1.00;1.00;;;;;;;;5095715;27;45332;-70
2023/07/23 03:12:26;;;;;;;;;2.00;2.00;;;;;;;;5095611;27;46284;-70
2023/07/23 03:14:52;;;;;;;;;2.00;1.00;;;;;;;;5096146;27;45383;-70
2023/07/23 03:17:17;;;;;;;;;2.50;1.00;;;;;;;;5096093;27;45304;-70
2023/07/23 03:19:42;;;;;;;;;1.25;1.25;;;;;;;;5095050;27;45411;-70
2023/07/23 03:22:08;;;;;;;;;1.50;1.50;;;;;;;;5095528;27;46189;-70
2023/07/23 03:24:33;;;;;;;;;1.00;1.00;;;;;;;;5095907;27;45507;-71
2023/07/23 03:26:58;;;;;;;;;3.25;1.00;;;;;;;;5096348;27;45450;-71
2023/07/23 03:29:23;;;;;;;;;0.75;0.75;;;;;;;;5095736;27;45416;-71
2023/07/23 03:31:48;;;;;;;;;1.25;1.25;;;;;;;;5095854;27;45374;-70
2023/07/23 03:34:14;;;;;;;;;0.75;0.75;;;;;;;;5093079;27;45379;-71
2023/07/23 03:36:39;;;;;;;;;1.75;1.00;;;;;;;;5082599;27;45433;-71
2023/07/23 03:39:04;;;;;;;;;1.75;1.00;;;;;;;;5075510;27;45370;-70
2023/07/23 03:41:29;;;;;;;;;1.25;1.25;;;;;;;;5075297;27;46513;-70
2023/07/23 03:43:55;;;;;;;;;2.00;1.25;;;;;;;;5074941;27;45391;-70
2023/07/23 03:46:20;;;;;;;;;1.00;1.00;;;;;;;;5075411;27;45394;-70
2023/07/23 03:48:47;;;;;;;;;1.50;0.00;;;;;;;;5075309;27;45303;-71
2023/07/23 03:51:13;;;;;;;;;1.00;1.00;;;;;;;;5080418;27;47855;-70
2023/07/23 03:53:38;;;;;;;;;1.00;1.00;;;;;;;;5095593;27;45313;-70
2023/07/23 03:56:04;;;;;;;;;1.00;1.00;;;;;;;;5095798;27;45253;-70
2023/07/23 03:58:29;;;;;;;;;4.50;1.75;;;;;;;;5095485;27;45466;-70
2023/07/23 04:00:54;;;;;;;;;1.00;1.00;;;;;;;;5094864;27;47362;-70
2023/07/23 04:03:19;;;;;;;;;3.00;1.25;;;;;;;;5095289;27;45257;-70
2023/07/23 04:05:44;;;;;;;;;1.50;1.50;;;;;;;;5094057;27;45295;-70
2023/07/23 04:08:10;;;;;;;;;2.00;2.00;;;;;;;;5095394;27;45306;-70
2023/07/23 04:10:36;;;;;;;;;0.75;0.75;;;;;;;;5095391;27;47077;-70
2023/07/23 04:13:03;;;;;;;;;2.25;1.50;;;;;;;;5095285;27;45337;-71
2023/07/23 04:15:29;;;;;;;;;1.00;1.00;;;;;;;;5094455;27;45503;-71
2023/07/23 04:17:54;;;;;;;;;2.00;2.00;;;;;;;;5095373;27;45495;-71
2023/07/23 04:20:19;;;;;;;;;2.25;2.25;;;;;;;;5095244;27;45427;-71
2023/07/23 04:22:44;;;;;;;;;1.00;1.00;;;;;;;;5096238;27;45612;-71
2023/07/23 04:25:10;;;;;;;;;2.00;1.00;;;;;;;;5099191;27;45446;-70
2023/07/23 04:27:35;;;;;;;;;4.00;1.75;;;;;;;;5098523;27;45436;-71
2023/07/23 04:30:00;;;;;;;;;1.75;1.00;;;;;;;;5098532;27;45373;-71
2023/07/23 04:32:25;;;;;;;;;2.00;2.00;;;;;;;;5098659;27;45400;-70
2023/07/23 04:34:50;;;;;;;;;0.00;0.00;;;;;;;;5098970;27;45452;-70
2023/07/23 04:37:16;;;;;;;;;2.00;1.75;;;;;;;;5097609;27;45459;-69
2023/07/23 04:39:41;;;;;;;;;2.50;2.50;;;;;;;;5098887;27;47131;-71
2023/07/23 04:42:06;;;;;;;;;1.25;1.25;;;;;;;;5098847;27;45449;-70
2023/07/23 04:44:31;;;;;;;;;2.75;2.75;;;;;;;;5099018;27;45407;-70
2023/07/23 04:46:56;;;;;;;;;2.00;2.00;;;;;;;;5098521;27;45572;-71
2023/07/23 04:49:22;;;;;;;;;0.75;0.75;;;;;;;;5098509;27;47107;-71
2023/07/23 04:51:47;;;;;;;;;1.00;1.00;;;;;;;;5096916;27;45469;-70
2023/07/23 04:54:12;;;;;;;;;2.00;2.00;;;;;;;;5097441;27;45498;-70
2023/07/23 04:56:37;;;;;;;;;2.00;2.00;;;;;;;;5098231;27;45322;-71
2023/07/23 04:59:03;;;;;;;;;1.75;1.25;;;;;;;;5098618;27;46288;-71
2023/07/23 05:01:28;;;;;;;;;2.00;1.00;;;;;;;;5096811;27;45346;-70
2023/07/23 05:03:53;;;;;;;;;2.00;2.00;;;;;;;;5098285;27;45462;-70
2023/07/23 05:06:18;;;;;;;;;1.00;1.00;;;;;;;;5098171;27;45451;-71
2023/07/23 05:08:44;;;;;;;;;1.25;1.25;;;;;;;;5097676;27;46383;-70
2023/07/23 05:11:09;;;;;;;;;1.00;1.00;;;;;;;;5098068;27;45403;-70
2023/07/23 05:13:35;;;;;;;;;2.00;2.00;;;;;;;;5096677;27;45319;-70
2023/07/23 05:16:02;;;;;;;;;5.25;2.25;;;;;;;;5096828;27;45381;-70
2023/07/23 05:18:27;;;;;;;;;2.50;2.50;;;;;;;;5096564;27;48142;-70
2023/07/23 05:20:53;;;;;;;;;1.00;1.00;;;;;;;;5097819;27;45495;-70
2023/07/23 05:23:18;;;;;;;;;2.00;2.00;;;;;;;;5097714;27;45334;-70
2023/07/23 05:25:44;;;;;;;;;1.00;1.00;;;;;;;;5079535;27;45589;-70
2023/07/23 05:28:10;;;;;;;;;0.75;0.75;;;;;;;;5097820;27;46151;-70
2023/07/23 05:30:35;;;;;;;;;3.00;3.00;;;;;;;;5097745;27;45388;-70
2023/07/23 05:33:00;;;;;;;;;1.25;1.25;;;;;;;;5097309;27;45411;-70
2023/07/23 05:35:25;;;;;;;;;0.00;0.00;;;;;;;;5097583;27;45592;-70
2023/07/23 05:37:51;;;;;;;;;1.75;1.75;;;;;;;;5079305;27;47630;-70
2023/07/23 05:40:16;;;;;;;;;1.25;1.25;;;;;;;;5097519;27;45358;-70
2023/07/23 05:42:41;;;;;;;;;2.00;2.00;;;;;;;;5079305;27;45665;-70
2023/07/23 05:45:07;;;;;;;;;1.50;1.25;;;;;;;;5079411;27;45471;-70
2023/07/23 05:47:32;;;;;;;;;1.00;1.00;;;;;;;;5097172;27;47502;-70
2023/07/23 05:49:57;;;;;;;;;2.50;1.75;;;;;;;;5097419;27;45454;-70
2023/07/23 05:52:22;;;;;;;;;2.00;1.00;;;;;;;;5081093;27;45343;-70
2023/07/23 05:54:48;;;;;;;;;4.00;1.75;;;;;;;;5076944;28;45362;-70
2023/07/23 05:57:13;;;;;;;;;1.75;1.75;;;;;;;;5074835;27;48113;-70
2023/07/23 05:59:38;;;;;;;;;2.00;2.00;;;;;;;;5096954;27;45288;-70
2023/07/23 06:02:03;;;;;;;;;1.50;1.25;;;;;;;;5097374;27;45348;-71
2023/07/23 06:04:29;;;;;;;;;1.50;1.50;;;;;;;;5096939;27;45508;-70
2023/07/23 06:06:55;;;;;;;;;2.25;1.00;;;;;;;;5097024;27;46277;-71
2023/07/23 06:09:21;;;;;;;;;2.00;1.50;;;;;;;;5078704;27;45461;-71
2023/07/23 06:11:46;;;;;;;;;2.00;2.00;;;;;;;;5097461;27;45241;-71
2023/07/23 06:14:11;;;;;;;;;2.00;2.00;;;;;;;;5097014;27;45625;-70
2023/07/23 06:16:36;;;;;;;;;2.00;2.00;;;;;;;;5096819;27;46378;-70
2023/07/23 06:19:02;;;;;;;;;1.50;1.50;;;;;;;;5096881;27;45375;-70
2023/07/23 06:21:27;;;;;;;;;2.75;1.50;;;;;;;;5096960;27;45386;-71
2023/07/23 06:23:52;;;;;;;;;1.50;1.50;;;;;;;;5096691;27;45296;-71
2023/07/23 06:26:17;;;;;;;;;2.50;2.50;;;;;;;;5096626;27;46175;-70
2023/07/23 06:28:43;;;;;;;;;2.00;2.00;;;;;;;;5078696;27;45498;-71
2023/07/23 06:31:08;;;;;;;;;1.00;1.00;;;;;;;;5097247;27;45764;-71
2023/07/23 06:33:33;;;;;;;;;1.50;1.00;;;;;;;;5096982;27;45577;-71
2023/07/23 06:35:58;;;;;;;;;1.50;1.00;;;;;;;;5096842;27;45474;-71
2023/07/23 06:38:24;;;;;;;;;1.50;1.50;;;;;;;;5096509;27;45481;-71
2023/07/23 06:40:53;;;;;;;;;1.00;1.00;;;;;;;;5096591;27;45405;-71
2023/07/23 06:43:19;;;;;;;;;4.00;2.00;;;;;;;;5078123;27;45437;-71
2023/07/23 06:45:44;;;;;;;;;3.00;1.00;;;;;;;;5095348;27;45394;-70
2023/07/23 06:48:11;;;;;;;;;2.75;1.50;;;;;;;;5096154;27;45373;-72
2023/07/23 06:50:36;;;;;;;;;1.25;1.25;;;;;;;;5095140;27;45354;-70
2023/07/23 06:53:01;;;;;;;;;2.00;2.00;;;;;;;;5075829;28;45356;-70
2023/07/23 06:55:26;;;;;;;;;2.75;2.75;;;;;;;;5075632;28;45536;-70
2023/07/23 06:57:51;;;;;;;;;3.50;2.25;;;;;;;;5075869;28;45391;-70
2023/07/23 07:00:17;;;;;;;;;3.00;1.00;;;;;;;;5057737;28;45360;-71
2023/07/23 07:02:42;;;;;;;;;1.00;1.00;;;;;;;;5075958;28;45318;-70
2023/07/23 07:05:07;;;;;;;;;1.00;1.00;;;;;;;;5075546;28;46217;-71
2023/07/23 07:07:33;;;;;;;;;3.00;3.00;;;;;;;;5075314;28;45254;-70
2023/07/23 07:09:59;;;;;;;;;5.00;2.00;;;;;;;;5081502;27;45441;-70
2023/07/23 07:12:24;;;;;;;;;2.00;2.00;;;;;;;;5096248;27;45393;-70
2023/07/23 07:14:49;;;;;;;;;1.25;1.25;;;;;;;;5096037;27;47202;-70
2023/07/23 07:17:14;;;;;;;;;0.00;0.00;;;;;;;;5077551;27;45382;-70
2023/07/23 07:19:40;;;;;;;;;3.75;1.25;;;;;;;;5096338;27;45434;-70
2023/07/23 07:22:05;;;;;;;;;2.00;2.00;;;;;;;;5096026;27;45373;-71
2023/07/23 07:24:30;;;;;;;;;1.25;0.75;;;;;;;;5095777;27;45366;-70
2023/07/23 07:26:55;;;;;;;;;1.50;1.50;;;;;;;;5077493;27;45425;-70
2023/07/23 07:29:21;;;;;;;;;1.75;1.75;;;;;;;;5095834;27;45455;-70
2023/07/23 07:31:48;;;;;;;;;1.50;1.50;;;;;;;;5096140;27;45371;-70
2023/07/23 07:34:13;;;;;;;;;1.50;1.50;;;;;;;;5095664;27;45538;-70
2023/07/23 07:36:38;;;;;;;;;2.00;2.00;;;;;;;;5095578;27;45374;-70
2023/07/23 07:39:04;;;;;;;;;2.00;2.00;;;;;;;;5095872;27;45347;-70
2023/07/23 07:41:29;;;;;;;;;2.00;2.00;;;;;;;;5095885;27;45272;-71
2023/07/23 07:43:55;;;;;;;;;3.00;3.00;;;;;;;;5095410;27;46069;-70
2023/07/23 07:46:20;;;;;;;;;1.25;1.00;;;;;;;;5095741;27;45368;-70
2023/07/23 07:48:46;;;;;;;;;2.25;1.50;;;;;;;;5095561;27;45359;-70
2023/07/23 07:51:11;;;;;;;;;0.50;0.50;;;;;;;;5089195;27;45441;-69
2023/07/23 07:53:38;;;;;;;;;0.25;0.25;;;;;;;;5075796;27;47288;-70
2023/07/23 07:56:04;;;;;;;;;1.00;1.00;;;;;;;;5095392;27;46309;-69
2023/07/23 07:58:29;;;;;;;;;2.00;1.00;;;;;;;;5099133;27;45489;-71
2023/07/23 08:00:55;;;;;;;;;2.25;1.00;;;;;;;;5099089;27;45555;-71
2023/07/23 08:03:21;;;;;;;;;2.00;2.00;;;;;;;;5098920;27;47146;-70
2023/07/23 08:05:47;;;;;;;;;2.00;2.00;;;;;;;;5098833;27;45421;-70
2023/07/23 08:08:13;;;;;;;;;1.00;1.00;;;;;;;;5080944;27;45441;-69
2023/07/23 08:10:39;;;;;;;;;1.25;1.25;;;;;;;;5099209;27;45373;-69
2023/07/23 08:13:05;;;;;;;;;1.00;1.00;;;;;;;;5098962;27;46992;-69
2023/07/23 08:15:31;;;;;;;;;2.25;1.25;;;;;;;;5080312;27;45346;-69
2023/07/23 08:17:57;;;;;;;;;1.00;1.00;;;;;;;;5099097;27;45352;-71
2023/07/23 08:20:22;;;;;;;;;2.50;2.00;;;;;;;;5098496;27;45293;-69
2023/07/23 08:22:47;;;;;;;;;1.25;1.25;;;;;;;;5081543;27;47796;-70
2023/07/23 08:25:13;;;;;;;;;2.00;2.00;;;;;;;;5098981;27;45426;-70
2023/07/23 08:27:39;;;;;;;;;1.00;1.00;;;;;;;;5098982;27;45302;-70
2023/07/23 08:30:07;;;;;;;;;1.00;1.00;;;;;;;;5098743;27;45450;-70
2023/07/23 08:32:32;;;;;;;;;1.00;1.00;;;;;;;;5098738;27;45507;-71
2023/07/23 08:34:58;;;;;;;;;2.00;2.00;;;;;;;;5098313;27;45500;-71
2023/07/23 08:37:24;;;;;;;;;4.00;2.25;;;;;;;;5098759;27;45439;-70
2023/07/23 08:39:49;;;;;;;;;3.00;1.50;;;;;;;;5098534;27;45348;-71
2023/07/23 08:42:38;;;;;;;;;1.75;1.50;;;;;;;;5097339;27;45710;-71
2023/07/23 08:45:19;;;;;;;;;2.00;2.00;;;;;;;;5098622;27;45447;-71
2023/07/23 08:47:45;;;;;;;;;2.00;2.00;;;;;;;;5098541;27;45268;-72
2023/07/23 08:50:13;;;;;;;;;1.00;1.00;;;;;;;;5097139;27;45665;-71
2023/07/23 08:52:39;;;;;;;;;2.00;2.00;;;;;;;;5096566;27;46182;-71
2023/07/23 08:55:05;;;;;;;;;2.75;2.00;;;;;;;;5096997;27;45442;-71
2023/07/23 08:57:32;;;;;;;;;2.00;2.00;;;;;;;;5097910;27;45452;-71
2023/07/23 08:59:58;;;;;;;;;3.00;2.00;;;;;;;;5098491;27;45323;-71
2023/07/23 09:02:24;;;;;;;;;2.00;2.00;;;;;;;;5097972;27;45473;-71
2023/07/23 09:04:51;;;;;;;;;1.25;1.25;;;;;;;;5097902;27;45343;-71
2023/07/23 09:07:17;;;;;;;;;3.00;2.00;;;;;;;;5097936;27;45337;-70
2023/07/23 09:09:42;;;;;;;;;1.25;1.25;;;;;;;;5097067;27;45604;-70
2023/07/23 09:12:07;;;;;;;;;2.00;2.00;;;;;;;;5097842;27;45429;-70
2023/07/23 09:14:40;;;;;;;;;1.00;1.00;;;;;;;;5098314;27;45358;-71
2023/07/23 09:17:14;;;;;;;;;1.00;1.00;;;;;;;;5097783;27;45313;-71
2023/07/23 09:19:40;;;;;;;;;0.25;0.25;;;;;;;;5097966;27;45498;-71
2023/07/23 09:22:05;;;;;;;;;1.00;1.00;;;;;;;;5097615;27;45325;-71
2023/07/23 09:24:32;;;;;;;;;1.50;1.50;;;;;;;;5096716;27;45916;-70
2023/07/23 09:26:57;;;;;;;;;2.00;2.00;;;;;;;;5098275;27;45306;-70
2023/07/23 09:29:22;;;;;;;;;1.50;1.00;;;;;;;;5097866;27;45333;-71
2023/07/23 09:31:49;;;;;;;;;2.00;0.25;;;;;;;;5097477;27;45402;-71
2023/07/23 09:34:18;;;;;;;;;2.50;2.00;;;;;;;;5098003;27;45534;-71
2023/07/23 09:36:43;;;;;;;;;1.00;1.00;;;;;;;;5097819;27;45392;-70
2023/07/23 09:39:08;;;;;;;;;1.75;1.75;;;;;;;;5097785;27;45368;-71
2023/07/23 09:41:35;;;;;;;;;1.00;0.00;;;;;;;;5098069;27;45997;-71
2023/07/23 09:44:10;;;;;;;;;1.00;1.00;;;;;;;;5098051;27;45431;-71
2023/07/23 09:46:36;;;;;;;;;1.00;1.00;;;;;;;;5098023;27;45384;-71
2023/07/23 09:49:01;;;;;;;;;1.25;1.25;;;;;;;;5098179;27;45275;-71
2023/07/23 09:51:27;;;;;;;;;2.00;2.00;;;;;;;;5096895;27;45567;-71
2023/07/23 09:53:52;;;;;;;;;1.00;1.00;;;;;;;;5096361;27;45391;-71
2023/07/23 09:56:19;;;;;;;;;1.00;1.00;;;;;;;;5097527;27;45412;-70
2023/07/23 09:58:46;;;;;;;;;2.00;2.00;;;;;;;;5097738;27;45593;-71
2023/07/23 10:01:12;;;;;;;;;1.25;1.25;;;;;;;;5096782;27;45505;-70
2023/07/23 10:03:37;;;;;;;;;2.00;2.00;;;;;;;;5097120;27;45483;-70
2023/07/23 10:06:03;;;;;;;;;1.25;1.25;;;;;;;;5097213;27;45382;-70
2023/07/23 10:08:28;;;;;;;;;1.25;1.00;;;;;;;;5097522;27;45564;-70
2023/07/23 10:10:53;;;;;;;;;2.50;1.25;;;;;;;;5097379;27;46029;-70
2023/07/23 10:13:19;;;;;;;;;3.00;2.00;;;;;;;;5096897;27;45367;-70
2023/07/23 10:15:46;;;;;;;;;2.00;2.00;;;;;;;;5097145;27;45365;-70
2023/07/23 10:18:12;;;;;;;;;1.00;1.00;;;;;;;;5097166;27;45383;-70
2023/07/23 10:20:38;;;;;;;;;1.50;0.75;;;;;;;;5096645;27;47150;-70
2023/07/23 10:23:05;;;;;;;;;2.75;1.00;;;;;;;;5096763;27;45809;-70
2023/07/23 10:25:31;;;;;;;;;4.25;2.50;;;;;;;;5097098;27;45420;-70
2023/07/23 10:27:56;;;;;;;;;3.75;2.25;;;;;;;;5096907;27;45463;-70
2023/07/23 10:30:21;;;;;;;;;2.00;1.25;;;;;;;;5095570;27;47180;-70
2023/07/23 10:33:07;;;;;;;;;0.33;0.33;;;;;;;;5096600;27;45455;-70
2023/07/23 10:35:50;;;;;;;;;0.25;0.25;;;;;;;;5095595;27;45497;-74
2023/07/23 10:38:20;;;;;;;;;5.00;1.25;;;;;;;;5095313;27;45402;-71
2023/07/23 10:40:46;;;;;;;;;2.50;2.50;;;;;;;;5096455;27;45557;-72
2023/07/23 10:43:12;;;;;;;;;2.00;2.00;;;;;;;;5096905;27;45277;-71
2023/07/23 10:45:37;;;;;;;;;2.00;2.00;;;;;;;;5096530;27;45427;-72
2023/07/23 10:48:03;;;;;;;;;4.50;2.00;;;;;;;;5095451;27;45394;-72
2023/07/23 10:50:30;;;;;;;;;1.00;1.00;;;;;;;;5095214;27;47638;-71
2023/07/23 10:53:00;;;;;;;;;3.25;3.25;;;;;;;;5096516;27;45447;-71
2023/07/23 10:55:45;;;;;;;;;3.50;2.00;;;;;;;;5096572;27;45379;-72
2023/07/23 10:58:11;;;;;;;;;3.25;2.00;;;;;;;;5096312;27;45365;-72
2023/07/23 11:00:41;;;;;;;;;3.25;3.25;;;;;;;;5094792;27;47267;-72
2023/07/23 11:03:11;;;;;;;;;3.50;3.00;;;;;;;;5096483;27;45495;-71
2023/07/23 11:05:40;;;;;;;;;1.50;1.50;;;;;;;;5096295;27;45441;-72
2023/07/23 11:08:12;;;;;;;;;2.50;2.50;;;;;;;;5096338;27;45426;-73
2023/07/23 11:11:05;;;;;;;;;4.00;3.75;;;;;;;;5096373;27;46200;-72
2023/07/23 11:13:31;;;;;;;;;3.00;3.00;;;;;;;;5091950;27;45450;-73
2023/07/23 11:15:56;;;;;;;;;4.50;4.50;;;;;;;;5096501;27;45467;-73
2023/07/23 11:18:22;;;;;;;;;3.00;3.00;;;;;;;;5096695;27;45351;-73
2023/07/23 11:20:51;;;;;;;;;3.25;2.00;;;;;;;;5094974;27;46855;-73
2023/07/23 11:23:17;;;;;;;;;5.25;5.25;;;;;;;;5096760;27;45430;-72
2023/07/23 11:25:43;;;;;;;;;2.00;2.00;;;;;;;;5097511;27;45348;-72
2023/07/23 11:28:08;;;;;;;;;2.25;2.25;;;;;;;;5094933;27;45739;-72
2023/07/23 11:30:33;;;;;;;;;1.00;1.00;;;;;;;;5096298;27;46231;-73
2023/07/23 11:32:59;;;;;;;;;2.25;2.25;;;;;;;;5095572;27;45749;-72
2023/07/23 11:35:25;;;;;;;;;1.50;1.50;;;;;;;;5096199;27;45281;-73
2023/07/23 11:37:50;;;;;;;;;2.75;1.75;;;;;;;;5095959;27;45321;-73
2023/07/23 11:40:26;;;;;;;;;3.00;1.50;;;;;;;;5076221;27;45492;-74
2023/07/23 11:42:51;;;;;;;;;3.25;3.00;;;;;;;;5094798;27;45380;-73
2023/07/23 11:45:17;;;;;;;;;2.75;2.00;;;;;;;;5093498;27;45514;-71
2023/07/23 11:47:49;;;;;;;;;4.00;2.75;;;;;;;;5093626;27;45390;-71
2023/07/23 11:50:15;;;;;;;;;1.75;1.75;;;;;;;;5094835;27;46542;-73
2023/07/23 11:52:40;;;;;;;;;2.00;2.00;;;;;;;;5094171;27;45480;-72
2023/07/23 11:55:06;;;;;;;;;5.00;2.25;;;;;;;;5094725;27;45466;-72
2023/07/23 11:57:32;;;;;;;;;5.00;2.00;;;;;;;;5094494;27;45543;-73
2023/07/23 12:00:00;;;;;;;;;2.00;2.00;;;;;;;;5094217;27;45588;-73
2023/07/23 12:02:25;;;;;;;;;5.00;3.00;;;;;;;;5094639;27;45524;-73
2023/07/23 12:04:55;;;;;;;;;2.50;2.50;;;;;;;;5094326;27;45432;-74
2023/07/23 12:07:20;;;;;;;;;2.00;2.00;;;;;;;;5094084;27;45502;-74
2023/07/23 12:09:46;;;;;;;;;1.75;1.50;;;;;;;;5094298;27;46202;-74
2023/07/23 12:12:12;;;;;;;;;5.00;2.00;;;;;;;;5094331;27;45653;-73
2023/07/23 12:14:38;;;;;;;;;3.00;2.50;;;;;;;;5094548;27;45366;-73
2023/07/23 12:17:03;;;;;;;;;2.00;2.00;;;;;;;;5075943;27;45540;-73
2023/07/23 12:19:28;;;;;;;;;3.00;3.00;;;;;;;;5093811;27;47127;-71
2023/07/23 12:21:54;;;;;;;;;2.50;2.50;;;;;;;;5094032;27;45300;-72
2023/07/23 12:24:22;;;;;;;;;4.50;4.00;;;;;;;;5094169;27;45508;-71
2023/07/23 12:26:51;;;;;;;;;4.75;4.75;;;;;;;;5093847;27;45462;-71
2023/07/23 12:29:16;;;;;;;;;19.00;18.25;;;;;;;;5093949;27;45402;-70
2023/07/23 12:31:42;;;;;;;;;7.00;6.00;;;;;;;;5093693;27;45510;-72
2023/07/23 12:34:09;;;;;;;;;3.00;2.00;;;;;;;;5093397;27;45716;-73
2023/07/23 12:36:34;;;;;;;;;7.50;6.50;;;;;;;;5094184;27;45483;-73
2023/07/23 12:38:59;;;;;;;;;34.25;30.25;;;;;;;;5094013;27;46418;-75
2023/07/23 12:41:24;;;;;;;;;7.00;7.00;;;;;;;;5093499;27;45447;-73
2023/07/23 12:43:49;;;;;;;;;5.00;4.25;;;;;;;;5094975;27;45427;-76
2023/07/23 12:46:15;;;;;;;;;4.75;2.75;;;;;;;;5097446;27;45374;-73
2023/07/23 12:48:40;;;;;;;;;4.75;4.00;;;;;;;;5098231;27;45378;-73
2023/07/23 12:51:05;;;;;;;;;5.25;5.25;;;;;;;;5098646;27;45391;-73
2023/07/23 12:53:30;;;;;;;;;2.00;2.00;;;;;;;;5097083;27;45441;-74
2023/07/23 12:55:56;;;;;;;;;3.25;3.25;;;;;;;;5098488;27;45387;-73
2023/07/23 12:58:21;;;;;;;;;3.75;2.25;;;;;;;;5096793;27;46631;-73
2023/07/23 13:00:46;;;;;;;;;2.00;2.00;;;;;;;;5098236;27;45484;-73
2023/07/23 13:03:11;;;;;;;;;2.75;2.25;;;;;;;;5098395;27;45419;-73
2023/07/23 13:05:36;;;;;;;;;4.00;3.00;;;;;;;;5096412;27;45665;-73
2023/07/23 13:08:02;;;;;;;;;3.00;3.00;;;;;;;;5096832;27;47130;-72
2023/07/23 13:10:27;;;;;;;;;4.00;2.00;;;;;;;;5097896;27;45438;-74
2023/07/23 13:12:52;;;;;;;;;2.75;2.75;;;;;;;;5097084;27;45398;-73
2023/07/23 13:15:17;;;;;;;;;2.50;1.50;;;;;;;;5098225;27;45371;-73
2023/07/23 13:17:45;;;;;;;;;3.00;3.00;;;;;;;;5098045;27;45382;-73
2023/07/23 13:20:11;;;;;;;;;2.00;2.00;;;;;;;;5098044;27;45394;-73
2023/07/23 13:22:36;;;;;;;;;4.00;4.00;;;;;;;;5096480;27;45284;-72
2023/07/23 13:25:01;;;;;;;;;2.00;1.25;;;;;;;;5097816;27;45329;-73
2023/07/23 13:27:26;;;;;;;;;2.50;2.50;;;;;;;;5097504;27;45331;-73
2023/07/23 13:29:52;;;;;;;;;1.50;1.50;;;;;;;;5097809;27;45295;-72
2023/07/23 13:32:23;;;;;;;;;2.50;2.50;;;;;;;;5097747;27;45338;-73
2023/07/23 13:34:49;;;;;;;;;1.67;1.67;;;;;;;;5097388;27;45454;-73
2023/07/23 13:37:15;;;;;;;;;2.75;2.75;;;;;;;;5097664;27;46396;-72
2023/07/23 13:39:40;;;;;;;;;1.67;1.67;;;;;;;;5078932;27;45391;-71
2023/07/23 13:42:06;;;;;;;;;1.00;1.00;;;;;;;;5097613;27;45248;-72
2023/07/23 13:44:32;;;;;;;;;3.00;3.00;;;;;;;;5097225;27;45612;-71
2023/07/23 13:46:57;;;;;;;;;2.25;2.00;;;;;;;;5097282;27;46086;-72
2023/07/23 13:49:22;;;;;;;;;1.50;1.50;;;;;;;;5097452;27;45463;-71
2023/07/23 13:51:47;;;;;;;;;2.00;2.00;;;;;;;;5079211;27;45299;-72
2023/07/23 13:54:13;;;;;;;;;1.75;1.75;;;;;;;;5096935;27;45457;-72
2023/07/23 13:56:38;;;;;;;;;1.75;1.75;;;;;;;;5097342;27;46267;-72
2023/07/23 13:59:03;;;;;;;;;2.00;2.00;;;;;;;;5097680;27;45427;-73
2023/07/23 14:01:28;;;;;;;;;2.25;2.25;;;;;;;;5079141;27;45389;-72
2023/07/23 14:03:53;;;;;;;;;3.25;2.25;;;;;;;;5097248;27;45428;-73
2023/07/23 14:06:21;;;;;;;;;1.00;1.00;;;;;;;;5097474;27;45493;-73
2023/07/23 14:08:46;;;;;;;;;2.00;2.00;;;;;;;;5097218;27;45500;-73
2023/07/23 14:11:12;;;;;;;;;2.00;2.00;;;;;;;;5097618;27;45440;-73
2023/07/23 14:13:37;;;;;;;;;1.00;1.00;;;;;;;;5097315;27;45549;-71
2023/07/23 14:16:02;;;;;;;;;2.00;2.00;;;;;;;;5078698;27;45580;-71
2023/07/23 14:18:27;;;;;;;;;2.75;2.00;;;;;;;;5097160;27;45384;-71
2023/07/23 14:20:52;;;;;;;;;1.50;1.50;;;;;;;;5097384;27;45352;-71
2023/07/23 14:23:18;;;;;;;;;2.50;0.75;;;;;;;;5096811;27;45388;-71
2023/07/23 14:25:43;;;;;;;;;3.00;1.75;;;;;;;;5078652;27;47417;-72
2023/07/23 14:28:08;;;;;;;;;2.50;2.25;;;;;;;;5096849;27;45311;-71
2023/07/23 14:30:33;;;;;;;;;2.50;1.50;;;;;;;;5097396;27;45385;-72
2023/07/23 14:32:58;;;;;;;;;2.00;2.00;;;;;;;;5096947;27;45403;-71
2023/07/23 14:35:24;;;;;;;;;3.75;2.00;;;;;;;;5096916;27;45290;-72